Time;durP1;ratioP1;P1;durP2;ratioP2;P2;SDS_P1;SDS_P2;PMS_P1;PMS_P2;Temp;Humidity;BMP_temperature;BMP_pressure;BME280_temperature;BME280_humidity;BME280_pressure;Samples;Min_cycle;Max_cycle;Signal;HPM_P1;HPM_P2
2024/01/27 00:00:21;;;;;;;38.25;13.48;;;;;;;4.81;100.00;95312.50;6190957;23;19996;-88
2024/01/27 00:02:47;;;;;;;30.25;12.40;;;;;;;4.87;100.00;95308.25;6191033;23;20083;-87
2024/01/27 00:05:12;;;;;;;34.88;13.35;;;;;;;4.78;100.00;95302.53;6191090;23;20307;-88
2024/01/27 00:07:37;;;;;;;41.00;13.98;;;;;;;4.70;100.00;95309.75;6215838;23;20361;-88
2024/01/27 00:10:03;;;;;;;29.77;13.70;;;;;;;4.69;100.00;95313.34;6190958;23;20079;-88
2024/01/27 00:12:29;;;;;;;32.03;12.77;;;;;;;4.71;100.00;95303.56;6191164;23;20011;-88
2024/01/27 00:14:54;;;;;;;32.08;13.82;;;;;;;4.66;100.00;95304.97;6190818;23;20007;-88
2024/01/27 00:17:23;;;;;;;33.05;13.60;;;;;;;4.83;100.00;95312.28;6190835;23;20417;-87
2024/01/27 00:19:50;;;;;;;29.83;13.00;;;;;;;4.90;100.00;95304.47;6191412;23;19992;-90
2024/01/27 00:22:16;;;;;;;35.08;12.52;;;;;;;4.74;100.00;95293.56;6215179;23;20031;-88
2024/01/27 00:24:42;;;;;;;26.65;11.60;;;;;;;4.89;100.00;95297.69;6215918;23;20051;-88
2024/01/27 00:27:08;;;;;;;33.08;13.15;;;;;;;4.91;100.00;95300.88;6192901;23;20000;-89
2024/01/27 00:29:33;;;;;;;30.67;12.35;;;;;;;5.19;100.00;95297.09;6217676;23;20394;-88
2024/01/27 00:31:58;;;;;;;33.95;11.95;;;;;;;5.13;100.00;95292.75;6192618;23;20004;-87
2024/01/27 00:34:25;;;;;;;28.08;12.07;;;;;;;5.21;100.00;95301.09;6218074;23;20043;-88
2024/01/27 00:36:50;;;;;;;25.75;11.32;;;;;;;4.90;100.00;95294.06;6193051;23;20012;-88
2024/01/27 00:39:26;;;;;;;31.23;11.45;;;;;;;4.98;100.00;95306.84;6192868;23;20001;-88
2024/01/27 00:41:53;;;;;;;30.90;11.93;;;;;;;4.89;100.00;95295.91;6193063;23;19996;-89
2024/01/27 00:44:19;;;;;;;29.95;11.80;;;;;;;5.03;100.00;95303.63;6217432;23;20001;-88
2024/01/27 00:46:44;;;;;;;29.23;11.68;;;;;;;4.92;100.00;95298.06;6192793;23;20008;-88
2024/01/27 00:49:10;;;;;;;30.85;11.88;;;;;;;5.21;100.00;95297.69;6192942;23;20350;-88
2024/01/27 00:51:35;;;;;;;29.23;10.93;;;;;;;5.28;100.00;95305.44;6192481;23;19997;-89
2024/01/27 00:54:01;;;;;;;29.75;11.20;;;;;;;5.17;100.00;95305.13;6192512;23;20008;-88
2024/01/27 00:56:26;;;;;;;25.27;10.75;;;;;;;5.05;100.00;95301.59;6192681;23;19997;-89
2024/01/27 00:58:51;;;;;;;23.85;9.98;;;;;;;4.89;100.00;95314.06;6217525;23;20063;-88
2024/01/27 01:01:17;;;;;;;24.33;9.80;;;;;;;4.74;100.00;95309.13;6217917;23;20440;-88
2024/01/27 01:03:42;;;;;;;26.15;10.65;;;;;;;4.61;100.00;95317.78;6217376;23;20024;-88
2024/01/27 01:06:08;;;;;;;25.77;10.50;;;;;;;4.60;100.00;95323.16;6217236;23;20004;-87
2024/01/27 01:08:33;;;;;;;24.77;11.25;;;;;;;4.51;100.00;95333.00;6216921;23;20005;-87
2024/01/27 01:10:59;;;;;;;27.25;10.35;;;;;;;4.45;100.00;95337.19;6191812;23;20005;-87
2024/01/27 01:13:24;;;;;;;26.08;10.18;;;;;;;4.56;100.00;95340.94;6191917;23;20005;-87
2024/01/27 01:15:50;;;;;;;27.13;11.63;;;;;;;4.66;100.00;95335.31;6191547;23;20024;-87
2024/01/27 01:18:15;;;;;;;26.85;11.85;;;;;;;4.70;100.00;95330.50;6192149;23;20003;-87
2024/01/27 01:20:41;;;;;;;25.02;10.85;;;;;;;4.58;100.00;95338.16;6216951;23;19992;-87
2024/01/27 01:23:07;;;;;;;29.35;12.00;;;;;;;4.75;100.00;95331.50;6217091;23;20006;-87
2024/01/27 01:25:33;;;;;;;27.67;11.70;;;;;;;4.75;100.00;95333.31;6192338;23;20421;-87
2024/01/27 01:27:58;;;;;;;32.75;11.88;;;;;;;4.91;100.00;95332.03;6217177;23;20004;-87
2024/01/27 01:30:24;;;;;;;30.13;12.23;;;;;;;4.86;100.00;95329.25;6191968;23;20005;-87
2024/01/27 01:32:50;;;;;;;24.10;10.07;;;;;;;4.79;100.00;95332.66;6192197;23;20004;-87
2024/01/27 01:35:15;;;;;;;25.63;10.80;;;;;;;4.62;100.00;95340.16;6217069;23;19993;-87
2024/01/27 01:37:41;;;;;;;27.20;10.80;;;;;;;4.61;100.00;95350.72;6216553;23;19997;-87
2024/01/27 01:40:07;;;;;;;28.98;10.77;;;;;;;4.62;100.00;95352.31;6192296;23;20055;-87
2024/01/27 01:42:32;;;;;;;27.45;10.25;;;;;;;4.47;100.00;95355.16;6191892;23;20000;-86
2024/01/27 01:44:58;;;;;;;23.42;10.27;;;;;;;4.50;100.00;95358.13;6191728;23;20007;-87
2024/01/27 01:47:23;;;;;;;29.50;10.82;;;;;;;4.33;100.00;95360.38;6216881;23;20007;-87
2024/01/27 01:49:49;;;;;;;23.40;10.75;;;;;;;4.37;100.00;95366.75;6216869;23;20457;-88
2024/01/27 01:52:19;;;;;;;26.85;10.55;;;;;;;4.37;100.00;95364.16;6191968;23;20403;-87
2024/01/27 01:54:49;;;;;;;25.48;10.00;;;;;;;4.35;100.00;95358.38;6193123;23;20075;-87
2024/01/27 01:57:15;;;;;;;20.02;8.80;;;;;;;4.47;100.00;95362.94;6191862;23;20001;-87
2024/01/27 01:59:42;;;;;;;22.33;10.00;;;;;;;4.69;100.00;95365.28;6216872;23;19996;-87
2024/01/27 02:02:12;;;;;;;19.55;9.13;;;;;;;4.70;100.00;95372.06;6191800;23;20063;-87
2024/01/27 02:04:45;;;;;;;18.73;8.93;;;;;;;4.65;100.00;95370.06;6191884;23;20000;-88
2024/01/27 02:07:11;;;;;;;21.55;8.30;;;;;;;4.53;100.00;95367.31;6216693;23;20004;-88
2024/01/27 02:09:44;;;;;;;23.00;9.30;;;;;;;4.53;100.00;95370.72;6192227;23;20005;-88
2024/01/27 02:12:13;;;;;;;21.10;8.38;;;;;;;4.44;100.00;95371.13;6192229;23;20095;-88
2024/01/27 02:14:39;;;;;;;18.75;8.15;;;;;;;4.56;100.00;95369.50;6192322;23;20291;-88
2024/01/27 02:17:05;;;;;;;19.90;9.05;;;;;;;4.47;100.00;95375.94;6192229;23;20003;-88
2024/01/27 02:19:31;;;;;;;22.58;8.68;;;;;;;4.44;100.00;95368.53;6216648;23;19997;-88
2024/01/27 02:21:56;;;;;;;22.27;8.90;;;;;;;4.38;100.00;95370.94;6216659;23;20028;-88
2024/01/27 02:24:22;;;;;;;29.85;10.23;;;;;;;4.47;100.00;95365.53;6192228;23;20043;-88
2024/01/27 02:26:47;;;;;;;19.13;7.95;;;;;;;4.62;100.00;95365.28;6191719;23;20287;-88
2024/01/27 02:29:13;;;;;;;21.63;8.27;;;;;;;4.71;100.00;95361.47;6191816;23;19997;-89
2024/01/27 02:31:38;;;;;;;17.85;8.27;;;;;;;4.95;100.00;95362.56;6192045;23;20000;-88
2024/01/27 02:34:04;;;;;;;19.63;8.18;;;;;;;5.12;100.00;95362.09;6191669;23;19996;-88
2024/01/27 02:36:29;;;;;;;14.90;6.72;;;;;;;5.07;100.00;95364.53;6191662;23;20016;-89
2024/01/27 02:38:55;;;;;;;19.33;7.75;;;;;;;5.23;100.00;95358.03;6217928;23;20008;-89
2024/01/27 02:41:20;;;;;;;19.60;7.68;;;;;;;4.99;100.00;95362.97;6191651;23;20054;-89
2024/01/27 02:43:46;;;;;;;21.45;7.90;;;;;;;4.64;100.00;95364.09;6191713;23;20292;-88
2024/01/27 02:46:12;;;;;;;18.73;8.20;;;;;;;4.62;100.00;95365.28;6216342;23;19997;-88
2024/01/27 02:48:42;;;;;;;17.60;7.47;;;;;;;4.51;100.00;95374.50;6191667;23;20058;-89
2024/01/27 02:51:08;;;;;;;20.55;8.68;;;;;;;4.51;100.00;95384.91;6191840;23;20005;-89
2024/01/27 02:53:33;;;;;;;22.92;8.73;;;;;;;4.30;100.00;95380.75;6191587;23;20008;-88
2024/01/27 02:55:59;;;;;;;21.92;9.07;;;;;;;4.28;100.00;95378.34;6191179;23;20310;-88
2024/01/27 02:58:24;;;;;;;21.55;9.15;;;;;;;4.24;100.00;95372.78;6215990;23;20000;-88
2024/01/27 03:00:50;;;;;;;19.48;8.98;;;;;;;4.20;100.00;95375.97;6191229;23;20051;-88
2024/01/27 03:03:15;;;;;;;23.30;8.90;;;;;;;4.29;100.00;95371.38;6191514;23;20004;-88
2024/01/27 03:05:41;;;;;;;24.58;10.30;;;;;;;4.39;100.00;95377.72;6216281;23;20003;-88
2024/01/27 03:08:07;;;;;;;23.92;10.68;;;;;;;4.58;100.00;95370.09;6191253;23;20004;-88
2024/01/27 03:10:32;;;;;;;21.27;9.55;;;;;;;4.60;100.00;95373.31;6216002;23;20008;-89
2024/01/27 03:12:58;;;;;;;20.40;8.35;;;;;;;4.69;100.00;95373.06;6191492;23;20087;-88
2024/01/27 03:15:23;;;;;;;18.35;8.68;;;;;;;4.45;100.00;95364.97;6190566;23;20051;-88
2024/01/27 03:17:49;;;;;;;17.92;8.13;;;;;;;4.32;100.00;95368.38;6190412;23;20011;-88
2024/01/27 03:20:14;;;;;;;17.15;8.02;;;;;;;4.33;100.00;95368.16;6215590;23;19992;-89
2024/01/27 03:22:41;;;;;;;22.55;8.68;;;;;;;4.31;100.00;95364.16;6215574;23;20001;-88
2024/01/27 03:25:07;;;;;;;21.55;8.80;;;;;;;4.26;100.00;95364.00;6216119;23;20054;-89
2024/01/27 03:27:33;;;;;;;22.70;8.80;;;;;;;4.45;100.00;95370.16;6191258;23;20001;-88
2024/01/27 03:30:01;;;;;;;20.13;8.52;;;;;;;4.34;100.00;95372.34;6217372;23;20011;-88
2024/01/27 03:32:26;;;;;;;24.73;8.20;;;;;;;4.39;100.00;95380.31;6215896;23;19997;-88
2024/01/27 03:34:51;;;;;;;22.27;9.15;;;;;;;4.45;100.00;95378.72;6216051;23;20474;-88
2024/01/27 03:37:17;;;;;;;18.25;8.88;;;;;;;4.36;100.00;95379.91;6215611;23;20075;-88
2024/01/27 03:39:42;;;;;;;26.45;8.93;;;;;;;4.46;100.00;95395.09;6191021;23;20034;-88
2024/01/27 03:42:08;;;;;;;19.23;8.95;;;;;;;4.42;100.00;95383.50;6191100;23;20000;-88
2024/01/27 03:44:34;;;;;;;20.38;8.38;;;;;;;4.33;100.00;95377.72;6191221;23;20402;-88
2024/01/27 03:47:00;;;;;;;24.38;9.40;;;;;;;4.51;100.00;95392.69;6191331;23;20403;-88
2024/01/27 03:49:25;;;;;;;20.10;9.23;;;;;;;4.37;100.00;95386.69;6216311;23;20004;-88
2024/01/27 03:51:51;;;;;;;22.58;9.82;;;;;;;4.48;100.00;95391.28;6215842;23;20001;-88
2024/01/27 03:54:16;;;;;;;18.95;8.90;;;;;;;4.51;100.00;95390.09;6190860;23;20066;-88
2024/01/27 03:56:42;;;;;;;26.88;10.05;;;;;;;4.63;100.00;95393.66;6191077;23;20055;-88
2024/01/27 03:59:09;;;;;;;20.98;8.95;;;;;;;4.51;100.00;95398.66;6191369;23;20007;-88
2024/01/27 04:01:35;;;;;;;26.63;10.75;;;;;;;4.49;100.00;95395.47;6192459;23;20028;-88
2024/01/27 04:04:00;;;;;;;23.33;9.95;;;;;;;4.49;100.00;95402.47;6193546;23;20000;-88
2024/01/27 04:06:26;;;;;;;21.58;9.88;;;;;;;4.36;100.00;95398.91;6193505;23;20087;-88
2024/01/27 04:08:51;;;;;;;18.40;8.80;;;;;;;4.50;100.00;95391.09;6217828;23;20071;-88
2024/01/27 04:11:23;;;;;;;29.58;9.88;;;;;;;4.44;100.00;95399.66;6217629;23;20032;-88
2024/01/27 04:13:50;;;;;;;25.40;10.20;;;;;;;4.32;100.00;95415.06;6217897;23;20131;-88
2024/01/27 04:16:15;;;;;;;26.38;11.85;;;;;;;4.42;100.00;95412.84;6193191;23;20005;-88
2024/01/27 04:18:42;;;;;;;26.80;11.15;;;;;;;4.31;100.00;95398.72;6217855;23;20008;-88
2024/01/27 04:21:07;;;;;;;29.13;11.48;;;;;;;4.29;100.00;95411.06;6192805;23;19993;-89
2024/01/27 04:23:33;;;;;;;20.50;9.95;;;;;;;4.16;100.00;95414.47;6192653;23;19996;-88
2024/01/27 04:26:02;;;;;;;26.90;11.15;;;;;;;3.99;100.00;95429.63;6217614;23;20000;-88
2024/01/27 04:28:30;;;;;;;23.27;10.73;;;;;;;4.07;100.00;95419.06;6217496;23;19997;-88
2024/01/27 04:30:55;;;;;;;28.15;11.10;;;;;;;4.08;100.00;95418.06;6192518;23;20288;-88
2024/01/27 04:33:21;;;;;;;33.03;11.20;;;;;;;3.98;100.00;95424.66;6217166;23;19997;-88
2024/01/27 04:35:46;;;;;;;23.08;11.25;;;;;;;3.92;100.00;95418.47;6192649;23;20005;-88
2024/01/27 04:38:12;;;;;;;28.42;11.18;;;;;;;3.90;100.00;95418.66;6217766;23;20307;-88
2024/01/27 04:40:37;;;;;;;29.27;12.30;;;;;;;3.89;100.00;95422.25;6192305;23;20003;-88
2024/01/27 04:43:03;;;;;;;28.40;11.70;;;;;;;3.84;100.00;95431.63;6217613;23;20019;-88
2024/01/27 04:45:28;;;;;;;27.02;11.32;;;;;;;3.85;100.00;95430.63;6217764;23;20004;-88
2024/01/27 04:47:54;;;;;;;27.48;11.93;;;;;;;3.72;100.00;95427.00;6217521;23;20064;-88
2024/01/27 04:50:20;;;;;;;26.10;11.88;;;;;;;3.68;100.00;95431.00;6192493;23;20087;-88
2024/01/27 04:52:46;;;;;;;24.83;11.90;;;;;;;3.77;100.00;95434.19;6217361;23;20425;-88
2024/01/27 04:55:12;;;;;;;34.67;12.55;;;;;;;3.81;100.00;95428.44;6217380;23;20000;-88
2024/01/27 04:57:37;;;;;;;29.67;13.23;;;;;;;3.94;100.00;95425.03;6192648;23;20007;-88
2024/01/27 05:00:07;;;;;;;27.05;12.48;;;;;;;4.09;100.00;95429.25;6217478;23;19997;-88
2024/01/27 05:02:32;;;;;;;32.72;12.25;;;;;;;4.28;100.00;95427.63;6192934;23;20032;-88
2024/01/27 05:04:58;;;;;;;35.55;13.57;;;;;;;4.24;100.00;95418.66;6192664;23;20011;-87
2024/01/27 05:07:23;;;;;;;26.08;11.60;;;;;;;4.02;100.00;95431.03;6192558;23;19997;-87
2024/01/27 05:09:49;;;;;;;24.08;11.02;;;;;;;3.91;100.00;95427.25;6216925;23;20059;-88
2024/01/27 05:12:14;;;;;;;28.70;12.45;;;;;;;3.80;100.00;95428.63;6216700;23;19997;-87
2024/01/27 05:14:44;;;;;;;36.47;13.60;;;;;;;3.64;100.00;95432.41;6192387;23;20406;-88
2024/01/27 05:17:10;;;;;;;35.92;13.45;;;;;;;3.67;100.00;95445.78;6217388;23;20004;-88
2024/01/27 05:19:35;;;;;;;30.50;12.82;;;;;;;3.79;100.00;95450.34;6192144;23;19992;-88
2024/01/27 05:22:01;;;;;;;28.98;12.60;;;;;;;3.72;100.00;95439.97;6217082;23;20302;-87
2024/01/27 05:24:26;;;;;;;31.08;13.18;;;;;;;3.77;100.00;95442.78;6217183;23;20007;-88
2024/01/27 05:26:52;;;;;;;35.42;13.00;;;;;;;3.65;100.00;95444.34;6218691;23;19996;-88
2024/01/27 05:29:18;;;;;;;34.13;13.25;;;;;;;3.77;100.00;95437.59;6192330;23;20011;-88
2024/01/27 05:31:44;;;;;;;35.45;12.48;;;;;;;3.56;100.00;95445.53;6192112;23;20001;-88
2024/01/27 05:34:10;;;;;;;31.25;12.95;;;;;;;3.61;100.00;95446.53;6192214;23;20001;-88
2024/01/27 05:36:36;;;;;;;29.23;13.05;;;;;;;3.60;100.00;95450.13;6192407;23;19997;-88
2024/01/27 05:39:04;;;;;;;32.58;12.35;;;;;;;3.54;100.00;95456.88;6217061;23;20023;-88
2024/01/27 05:41:30;;;;;;;32.15;12.38;;;;;;;3.53;100.00;95450.09;6217219;23;19997;-88
2024/01/27 05:43:57;;;;;;;27.40;12.00;;;;;;;3.66;100.00;95453.72;6216871;23;20410;-88
2024/01/27 05:46:24;;;;;;;28.42;12.15;;;;;;;3.46;100.00;95456.28;6192162;23;20005;-88
2024/01/27 05:48:50;;;;;;;32.83;11.57;;;;;;;3.55;100.00;95462.88;6191944;23;20059;-89
2024/01/27 05:51:16;;;;;;;27.23;10.43;;;;;;;3.57;100.00;95457.50;6216775;23;20354;-88
2024/01/27 05:53:42;;;;;;;28.55;10.75;;;;;;;3.52;100.00;95461.47;6191880;23;20071;-87
2024/01/27 05:56:07;;;;;;;28.40;11.52;;;;;;;3.63;100.00;95470.47;6192146;23;20070;-87
2024/01/27 05:58:32;;;;;;;29.02;12.20;;;;;;;3.60;100.00;95476.03;6216838;23;20028;-88
2024/01/27 06:00:58;;;;;;;28.85;11.10;;;;;;;3.49;100.00;95471.41;6192217;23;20462;-87
2024/01/27 06:03:23;;;;;;;25.92;11.30;;;;;;;3.63;100.00;95473.06;6217167;23;20000;-87
2024/01/27 06:05:49;;;;;;;28.58;11.88;;;;;;;3.52;100.00;95478.81;6192087;23;20003;-88
2024/01/27 06:08:14;;;;;;;28.33;10.48;;;;;;;3.62;100.00;95489.59;6191903;23;20450;-87
2024/01/27 06:10:40;;;;;;;26.92;10.77;;;;;;;3.64;100.00;95486.81;6191766;23;20059;-87
2024/01/27 06:13:05;;;;;;;26.92;10.85;;;;;;;3.47;100.00;95488.97;6216956;23;20386;-87
2024/01/27 06:15:31;;;;;;;26.90;10.55;;;;;;;3.62;100.00;95501.78;6191945;23;20008;-88
2024/01/27 06:17:57;;;;;;;31.38;12.18;;;;;;;3.58;100.00;95497.94;6191855;23;20449;-88
2024/01/27 06:20:23;;;;;;;29.05;10.68;;;;;;;3.53;100.00;95504.53;6216532;23;20391;-88
2024/01/27 06:22:48;;;;;;;33.00;10.95;;;;;;;3.73;100.00;95498.63;6191820;23;20028;-88
2024/01/27 06:25:14;;;;;;;29.33;10.27;;;;;;;3.63;100.00;95501.56;6191721;23;19997;-88
2024/01/27 06:27:41;;;;;;;29.48;10.70;;;;;;;3.73;100.00;95503.81;6191815;23;20398;-88
2024/01/27 06:30:07;;;;;;;26.80;10.88;;;;;;;3.48;100.00;95506.91;6192072;23;20009;-88
2024/01/27 06:32:33;;;;;;;28.02;10.38;;;;;;;3.56;100.00;95505.13;6191710;23;20001;-89
2024/01/27 06:34:58;;;;;;;24.05;8.20;;;;;;;3.53;100.00;95516.69;6191683;23;20003;-88
2024/01/27 06:37:24;;;;;;;19.90;7.72;;;;;;;3.53;100.00;95514.09;6191673;23;19996;-88
2024/01/27 06:39:49;;;;;;;13.90;6.70;;;;;;;3.52;100.00;95515.88;6191728;23;20001;-88
2024/01/27 06:42:15;;;;;;;16.60;6.57;;;;;;;3.60;100.00;95516.72;6191210;23;20417;-88
2024/01/27 06:44:40;;;;;;;21.23;7.15;;;;;;;3.66;100.00;95526.31;6216789;23;20521;-88
2024/01/27 06:47:06;;;;;;;17.00;7.82;;;;;;;3.79;100.00;95512.56;6216732;23;20012;-88
2024/01/27 06:49:33;;;;;;;20.65;7.05;;;;;;;3.98;100.00;95526.56;6191091;23;20012;-88
2024/01/27 06:51:58;;;;;;;17.45;6.35;;;;;;;3.77;100.00;95519.75;6191372;23;20000;-88
2024/01/27 06:54:24;;;;;;;14.88;5.53;;;;;;;3.80;100.00;95529.72;6216978;23;20390;-88
2024/01/27 06:56:49;;;;;;;15.32;5.88;;;;;;;3.92;100.00;95525.56;6216379;23;20047;-88
2024/01/27 06:59:18;;;;;;;12.85;5.43;;;;;;;4.00;100.00;95528.97;6191947;23;20012;-88
2024/01/27 07:01:48;;;;;;;13.77;6.18;;;;;;;4.16;100.00;95533.78;6216244;23;19997;-88
2024/01/27 07:04:14;;;;;;;13.95;5.35;;;;;;;4.14;100.00;95533.19;6216712;23;20025;-88
2024/01/27 07:06:40;;;;;;;12.68;5.03;;;;;;;4.16;100.00;95541.56;6190984;23;20061;-88
2024/01/27 07:09:06;;;;;;;13.55;5.72;;;;;;;4.13;100.00;95544.56;6191730;23;20450;-88
2024/01/27 07:11:32;;;;;;;14.63;5.60;;;;;;;4.24;100.00;95543.19;6216248;23;20036;-88
2024/01/27 07:13:58;;;;;;;13.70;4.63;;;;;;;4.28;100.00;95536.59;6216139;23;20402;-88
2024/01/27 07:16:24;;;;;;;14.23;5.45;;;;;;;4.40;100.00;95544.59;6216159;23;20045;-88
2024/01/27 07:18:49;;;;;;;10.65;5.35;;;;;;;4.63;100.00;95549.41;6191164;23;20691;-88
2024/01/27 07:21:17;;;;;;;12.48;5.40;;;;;;;4.57;100.00;95549.41;6216024;23;19996;-89
2024/01/27 07:23:46;;;;;;;12.23;5.10;;;;;;;4.60;100.00;95547.22;6190975;23;20004;-88
2024/01/27 07:26:12;;;;;;;10.13;4.28;;;;;;;4.64;100.00;95553.59;6191206;23;20406;-88
2024/01/27 07:28:38;;;;;;;11.40;4.30;;;;;;;4.77;100.00;95552.78;6188318;23;20011;-88
2024/01/27 07:31:04;;;;;;;10.32;4.18;;;;;;;4.85;100.00;95558.78;6215995;23;20001;-86
2024/01/27 07:33:30;;;;;;;14.05;5.45;;;;;;;5.05;100.00;95562.13;6190679;23;20036;-88
2024/01/27 07:35:57;;;;;;;11.63;4.85;;;;;;;5.07;100.00;95561.94;6190531;23;20055;-87
2024/01/27 07:38:22;;;;;;;10.50;4.47;;;;;;;5.22;100.00;95554.72;6215981;23;20004;-88
2024/01/27 07:40:48;;;;;;;11.90;4.13;;;;;;;5.38;100.00;95555.28;6188115;23;19997;-88
2024/01/27 07:43:13;;;;;;;9.30;3.55;;;;;;;5.54;100.00;95556.63;6215933;23;19996;-88
2024/01/27 07:45:38;;;;;;;10.50;4.50;;;;;;;5.65;100.00;95550.00;6216042;23;20086;-88
2024/01/27 07:48:04;;;;;;;12.68;4.60;;;;;;;5.68;100.00;95554.00;6216281;23;19999;-88
2024/01/27 07:50:30;;;;;;;9.85;4.70;;;;;;;5.65;100.00;95550.78;6215596;23;20012;-88
2024/01/27 07:52:57;;;;;;;10.38;4.80;;;;;;;5.89;100.00;95558.88;6216261;23;20039;-88
2024/01/27 07:55:23;;;;;;;13.07;5.57;;;;;;;5.85;100.00;95560.31;6191142;23;20000;-87
2024/01/27 07:57:48;;;;;;;10.13;3.85;;;;;;;5.98;100.00;95556.84;6190941;23;20028;-88
2024/01/27 08:00:14;;;;;;;14.07;5.60;;;;;;;5.94;100.00;95550.47;6215688;23;19989;-88
2024/01/27 08:02:39;;;;;;;11.77;4.80;;;;;;;6.01;100.00;95556.44;6215724;23;20001;-88
2024/01/27 08:05:06;;;;;;;16.20;6.13;;;;;;;6.05;100.00;95555.03;6191077;23;19997;-88
2024/01/27 08:07:32;;;;;;;16.17;6.60;;;;;;;6.07;100.00;95558.22;6191036;23;20011;-88
2024/01/27 08:09:57;;;;;;;13.23;4.32;;;;;;;6.16;100.00;95563.97;6191028;23;20001;-88
2024/01/27 08:12:23;;;;;;;15.15;4.47;;;;;;;6.26;100.00;95560.13;6190859;23;20008;-88
2024/01/27 08:14:50;;;;;;;12.57;5.13;;;;;;;6.33;100.00;95563.47;6215796;23;19997;-88
2024/01/27 08:17:15;;;;;;;15.85;5.00;;;;;;;6.35;100.00;95567.47;6190631;23;20016;-87
2024/01/27 08:19:41;;;;;;;13.18;4.65;;;;;;;6.40;100.00;95568.63;6190959;23;20325;-88
2024/01/27 08:22:08;;;;;;;13.10;4.55;;;;;;;6.38;100.00;95566.22;6215694;23;20072;-88
2024/01/27 08:24:33;;;;;;;17.38;5.32;;;;;;;6.56;100.00;95562.91;6190996;23;20084;-88
2024/01/27 08:27:00;;;;;;;8.75;3.85;;;;;;;6.71;100.00;95562.59;6191287;23;20428;-88
2024/01/27 08:29:25;;;;;;;9.82;3.90;;;;;;;6.76;100.00;95567.19;6216204;23;20287;-88
2024/01/27 08:31:51;;;;;;;16.20;4.57;;;;;;;6.83;100.00;95565.31;6190651;23;20007;-88
2024/01/27 08:34:16;;;;;;;12.07;4.10;;;;;;;6.89;100.00;95564.47;6191338;23;20075;-88
2024/01/27 08:36:42;;;;;;;10.52;4.38;;;;;;;6.96;100.00;95561.00;6190961;23;20001;-88
2024/01/27 08:39:27;;;;;;;13.10;4.38;;;;;;;7.04;100.00;95566.72;6215771;23;20003;-88
2024/01/27 08:41:52;;;;;;;8.18;3.85;;;;;;;7.11;100.00;95566.66;6215560;23;20001;-88
2024/01/27 08:44:18;;;;;;;11.13;4.32;;;;;;;7.21;100.00;95568.75;6190910;23;20008;-88
2024/01/27 08:46:43;;;;;;;10.55;4.00;;;;;;;7.25;100.00;95574.34;6216279;23;20005;-88
2024/01/27 08:49:09;;;;;;;12.45;3.97;;;;;;;7.35;100.00;95572.06;6193079;23;19996;-88
2024/01/27 08:51:35;;;;;;;8.10;3.58;;;;;;;7.44;100.00;95572.56;6217933;23;20004;-88
2024/01/27 08:54:00;;;;;;;9.35;3.58;;;;;;;7.67;100.00;95578.91;6191751;23;20040;-88
2024/01/27 08:56:26;;;;;;;11.27;4.10;;;;;;;7.76;100.00;95578.41;6192166;23;20318;-88
2024/01/27 08:58:52;;;;;;;9.50;4.45;;;;;;;7.88;100.00;95580.28;6192602;23;19996;-88
2024/01/27 09:01:20;;;;;;;9.93;4.18;;;;;;;7.82;100.00;95581.16;6192719;23;20349;-88
2024/01/27 09:03:46;;;;;;;10.70;4.40;;;;;;;7.94;100.00;95584.63;6217758;23;20071;-88
2024/01/27 09:06:11;;;;;;;9.65;4.30;;;;;;;8.06;100.00;95585.47;6192606;23;20012;-91
2024/01/27 09:08:37;;;;;;;7.50;3.67;;;;;;;8.21;100.00;95585.06;6192623;23;20004;-87
2024/01/27 09:11:03;;;;;;;8.13;3.55;;;;;;;8.31;100.00;95588.97;6217097;23;20004;-87
2024/01/27 09:13:28;;;;;;;10.45;3.95;;;;;;;8.26;100.00;95587.00;6217280;23;20003;-87
2024/01/27 09:15:54;;;;;;;10.13;3.65;;;;;;;8.32;100.00;95595.78;6218719;23;20008;-87
2024/01/27 09:18:20;;;;;;;9.27;3.60;;;;;;;8.31;100.00;95594.19;6217120;23;20314;-87
2024/01/27 09:20:46;;;;;;;8.35;3.70;;;;;;;8.62;100.00;95600.22;6217007;23;19997;-88
2024/01/27 09:23:11;;;;;;;6.88;3.20;;;;;;;8.67;100.00;95597.72;6192407;23;20004;-88
2024/01/27 09:25:37;;;;;;;7.35;3.60;;;;;;;8.77;100.00;95589.34;6192337;23;20001;-88
2024/01/27 09:28:03;;;;;;;10.10;3.20;;;;;;;8.83;100.00;95593.66;6217340;23;20003;-89
2024/01/27 09:30:28;;;;;;;9.90;4.32;;;;;;;8.83;100.00;95598.09;6217349;23;20009;-89
2024/01/27 09:32:54;;;;;;;12.27;3.63;;;;;;;8.84;100.00;95603.09;6217140;23;19997;-89
2024/01/27 09:35:20;;;;;;;8.70;4.13;;;;;;;9.02;100.00;95602.19;6217470;23;20004;-89
2024/01/27 09:37:46;;;;;;;9.48;4.05;;;;;;;9.00;100.00;95606.06;6192566;23;20051;-89
2024/01/27 09:40:12;;;;;;;9.45;3.28;;;;;;;8.98;100.00;95602.88;6217177;23;19993;-90
2024/01/27 09:42:41;;;;;;;7.38;2.78;;;;;;;8.99;100.00;95600.03;6192373;23;20009;-89
2024/01/27 09:45:11;;;;;;;7.03;2.72;;;;;;;9.14;100.00;95604.81;6192832;23;20007;-89
2024/01/27 09:47:36;;;;;;;5.93;2.85;;;;;;;9.24;100.00;95612.09;6192423;23;19996;-89
2024/01/27 09:50:02;;;;;;;8.82;3.00;;;;;;;9.11;100.00;95615.72;6192601;23;20044;-89
2024/01/27 09:52:28;;;;;;;8.88;3.33;;;;;;;9.13;100.00;95620.75;6216731;23;20000;-89
2024/01/27 09:54:53;;;;;;;11.88;3.38;;;;;;;9.17;100.00;95621.88;6192646;23;20000;-89
2024/01/27 09:57:20;;;;;;;6.63;2.80;;;;;;;9.30;100.00;95620.84;6192186;23;19997;-89
2024/01/27 09:59:46;;;;;;;5.97;2.58;;;;;;;9.42;100.00;95618.25;6192436;23;20045;-87
2024/01/27 10:02:12;;;;;;;6.93;2.53;;;;;;;9.45;100.00;95631.63;6216829;23;19996;-88
2024/01/27 10:04:40;;;;;;;5.00;2.40;;;;;;;9.66;100.00;95623.44;6217107;23;20067;-88
2024/01/27 10:07:08;;;;;;;6.70;2.30;;;;;;;9.46;100.00;95620.16;6216558;23;20391;-87
2024/01/27 10:09:38;;;;;;;6.20;2.60;;;;;;;9.69;100.00;95628.22;6218313;23;20004;-88
2024/01/27 10:12:04;;;;;;;11.02;2.97;;;;;;;9.82;100.00;95633.19;6216626;23;19996;-87
2024/01/27 10:14:44;;;;;;;8.20;2.63;;;;;;;9.74;100.00;95623.88;6216706;23;20051;-88
2024/01/27 10:17:26;;;;;;;4.40;2.25;;;;;;;9.78;100.00;95620.81;6192265;23;20031;-88
2024/01/27 10:20:03;;;;;;;6.38;2.72;;;;;;;10.09;100.00;95624.81;6192422;23;20390;-87
2024/01/27 10:22:29;;;;;;;5.32;2.47;;;;;;;10.18;100.00;95626.03;6216389;23;20346;-87
2024/01/27 10:24:55;;;;;;;7.07;2.15;;;;;;;10.18;100.00;95620.81;6191669;23;20027;-85
2024/01/27 10:27:21;;;;;;;4.38;2.20;;;;;;;10.39;100.00;95615.16;6216211;23;20481;-88
2024/01/27 10:29:54;;;;;;;5.25;2.38;;;;;;;10.41;100.00;95610.50;6216543;23;20005;-88
2024/01/27 10:32:19;;;;;;;6.40;2.50;;;;;;;10.46;100.00;95611.38;6216493;23;19992;-85
2024/01/27 10:34:45;;;;;;;3.78;2.08;;;;;;;10.53;100.00;95608.63;6216226;23;20019;-86
2024/01/27 10:37:13;;;;;;;4.65;2.35;;;;;;;10.60;100.00;95603.22;6217987;23;20447;-86
2024/01/27 10:39:38;;;;;;;4.78;2.38;;;;;;;10.64;100.00;95608.81;6216191;23;19997;-85
2024/01/27 10:42:05;;;;;;;7.85;2.42;;;;;;;10.67;97.11;95611.72;6217447;23;20398;-85
2024/01/27 10:44:30;;;;;;;3.80;2.08;;;;;;;10.75;96.21;95611.34;6216516;23;20005;-85
2024/01/27 10:46:56;;;;;;;4.30;2.00;;;;;;;10.94;100.00;95602.47;6191242;23;20011;-85
2024/01/27 10:49:23;;;;;;;3.90;1.90;;;;;;;11.21;89.10;95604.44;6191012;23;20076;-85
2024/01/27 10:51:55;;;;;;;6.10;2.33;;;;;;;11.49;89.10;95600.88;6191031;23;20004;-86
2024/01/27 10:54:30;;;;;;;5.38;2.30;;;;;;;12.02;76.62;95598.66;6191102;23;20087;-85
2024/01/27 10:56:57;;;;;;;8.60;2.42;;;;;;;12.20;79.82;95602.03;6216075;23;20001;-85
2024/01/27 10:59:23;;;;;;;4.50;2.40;;;;;;;12.29;79.54;95605.78;6191173;23;20394;-85
2024/01/27 11:01:53;;;;;;;2.85;1.90;;;;;;;12.69;67.88;95603.78;6215629;23;20000;-86
2024/01/27 11:04:19;;;;;;;2.15;1.50;;;;;;;12.69;73.13;95605.63;6190779;23;19997;-86
2024/01/27 11:06:47;;;;;;;2.58;1.40;;;;;;;12.71;67.29;95599.09;6216698;23;20075;-86
2024/01/27 11:09:14;;;;;;;2.30;1.27;;;;;;;12.78;64.97;95604.16;6191071;23;19996;-86
2024/01/27 11:11:40;;;;;;;4.10;1.88;;;;;;;12.75;67.43;95603.84;6190496;23;20008;-86
2024/01/27 11:14:06;;;;;;;2.90;1.80;;;;;;;12.72;71.82;95603.31;6191011;23;20001;-86
2024/01/27 11:16:32;;;;;;;4.25;1.95;;;;;;;12.69;78.35;95609.03;6215587;23;20046;-86
2024/01/27 11:18:57;;;;;;;2.80;1.60;;;;;;;12.67;74.59;95605.88;6191241;23;20046;-85